Terminal Aerodrome Forecast
Issued by NWS

Home | Current Version | Previous Version | Text Only | Print | Product List | Glossary On
Versions: 1 2 3 4 5 6 7 8 9 10 11 12 13 14
240
FTAK31 PAJN 270526
TAFAJN
TAF
PAJN 270526Z 2706/2806 26003KT P6SM VCSH FEW003 BKN025 OVC035
     FM271000 26005KT P6SM FEW005 BKN050
      TEMPO 2711/2715 4SM BCFG SCT005 SCT050
     FM272100 26008KT P6SM SCT050=

USA.gov is the U.S. government's official web portal to all federal, state and local government web resources and services.